Time;durP1;ratioP1;P1;durP2;ratioP2;P2;SDS_P1;SDS_P2;PMS_P1;PMS_P2;Temp;Humidity;BMP_temperature;BMP_pressure;BME280_temperature;BME280_humidity;BME280_pressure;Samples;Min_cycle;Max_cycle;Signal;HPM_P1;HPM_P2
2021/11/29 00:01:38;;;;;;;8.05;5.25;;;0.80;99.90;;;;;;4953871;28;20053;-78
2021/11/29 00:04:04;;;;;;;8.15;5.57;;;0.80;99.90;;;;;;4947839;28;20034;-78
2021/11/29 00:06:30;;;;;;;8.20;6.10;;;0.80;99.90;;;;;;4975779;28;20046;-78
2021/11/29 00:08:56;;;;;;;7.85;5.38;;;0.80;99.90;;;;;;4948455;28;20031;-78
2021/11/29 00:11:21;;;;;;;6.90;4.72;;;0.90;99.90;;;;;;4985002;28;20038;-79
2021/11/29 00:13:47;;;;;;;9.77;5.50;;;0.80;99.90;;;;;;4978453;28;20062;-79
2021/11/29 00:16:13;;;;;;;7.28;5.38;;;0.80;99.90;;;;;;4961672;28;20032;-79
2021/11/29 00:18:39;;;;;;;8.25;5.57;;;0.90;99.90;;;;;;4957709;28;20043;-79
2021/11/29 00:21:05;;;;;;;8.02;5.13;;;0.90;99.90;;;;;;4925144;28;20030;-79
2021/11/29 00:23:32;;;;;;;8.35;5.47;;;0.90;99.90;;;;;;4949056;28;20035;-78
2021/11/29 00:25:59;;;;;;;7.60;5.50;;;0.90;99.90;;;;;;4977825;28;20035;-78
2021/11/29 00:28:25;;;;;;;10.02;5.50;;;0.90;99.90;;;;;;4964901;28;20571;-79
2021/11/29 00:30:51;;;;;;;9.13;6.05;;;0.80;99.90;;;;;;4971474;28;20038;-78
2021/11/29 00:33:17;;;;;;;9.07;6.05;;;0.80;99.90;;;;;;4938917;28;20072;-78
2021/11/29 00:35:42;;;;;;;7.20;5.00;;;0.80;99.90;;;;;;4985342;28;20027;-78
2021/11/29 00:38:10;;;;;;;6.50;4.63;;;0.80;99.90;;;;;;4985786;28;20030;-78
2021/11/29 00:40:37;;;;;;;7.82;4.95;;;0.70;99.90;;;;;;4955724;28;20084;-78
2021/11/29 00:43:03;;;;;;;8.48;5.35;;;0.70;99.90;;;;;;4987531;28;20031;-79
2021/11/29 00:45:29;;;;;;;8.50;5.07;;;0.70;99.90;;;;;;4976238;28;20042;-78
2021/11/29 00:47:55;;;;;;;7.60;5.15;;;0.70;99.90;;;;;;4976073;28;20034;-78
2021/11/29 00:50:21;;;;;;;7.68;5.72;;;0.70;99.90;;;;;;4960481;28;20100;-79
2021/11/29 00:52:47;;;;;;;7.78;5.45;;;0.80;99.90;;;;;;4975094;28;20039;-78
2021/11/29 00:55:16;;;;;;;7.45;4.65;;;0.80;99.90;;;;;;4992615;28;20081;-78
2021/11/29 00:57:42;;;;;;;7.32;4.65;;;0.80;99.90;;;;;;4971481;28;20081;-77
2021/11/29 01:00:12;;;;;;;8.52;5.72;;;0.80;99.90;;;;;;4975369;28;20038;-78
2021/11/29 01:02:38;;;;;;;7.35;4.70;;;0.80;99.90;;;;;;4965108;28;20121;-78
2021/11/29 01:05:04;;;;;;;10.00;6.07;;;0.80;99.90;;;;;;4975686;28;20034;-79
2021/11/29 01:07:30;;;;;;;8.82;5.65;;;0.80;99.90;;;;;;4970523;28;20540;-78
2021/11/29 01:09:56;;;;;;;7.38;5.25;;;0.80;99.90;;;;;;4958759;28;20039;-78
2021/11/29 01:12:22;;;;;;;7.88;5.30;;;0.80;99.90;;;;;;4978480;28;20035;-77
2021/11/29 01:14:48;;;;;;;8.63;5.40;;;0.70;99.90;;;;;;4970911;28;20030;-78
2021/11/29 01:17:14;;;;;;;7.55;5.05;;;0.80;99.90;;;;;;4968279;28;20056;-78
2021/11/29 01:19:40;;;;;;;9.20;5.55;;;0.70;99.90;;;;;;4968444;28;20043;-78
2021/11/29 01:22:06;;;;;;;8.80;5.35;;;0.70;99.90;;;;;;4987637;28;20034;-78
2021/11/29 01:24:32;;;;;;;8.05;5.47;;;0.70;99.90;;;;;;4963048;28;20073;-78
2021/11/29 01:26:58;;;;;;;8.57;5.57;;;0.70;99.90;;;;;;4985771;28;20449;-78
2021/11/29 01:29:24;;;;;;;8.68;5.93;;;0.80;99.90;;;;;;4981309;28;20105;-78
2021/11/29 01:31:50;;;;;;;8.85;5.93;;;0.70;99.90;;;;;;4975850;28;20046;-79
2021/11/29 01:34:16;;;;;;;8.93;5.75;;;0.70;99.90;;;;;;4949837;28;20117;-80
2021/11/29 01:36:42;;;;;;;8.30;5.40;;;0.70;99.90;;;;;;4982122;28;20039;-79
2021/11/29 01:39:09;;;;;;;7.88;4.93;;;0.70;99.90;;;;;;4984764;28;20389;-79
2021/11/29 01:41:35;;;;;;;8.95;5.68;;;0.70;99.90;;;;;;4970995;28;20476;-78
2021/11/29 01:44:01;;;;;;;8.10;5.32;;;0.70;99.90;;;;;;4959834;28;20129;-79
2021/11/29 01:46:27;;;;;;;8.88;5.60;;;0.70;99.90;;;;;;4981980;28;20113;-78
2021/11/29 01:48:53;;;;;;;8.63;5.70;;;0.70;99.90;;;;;;4987665;28;20026;-78
2021/11/29 01:51:18;;;;;;;7.75;5.15;;;0.70;99.90;;;;;;4978537;28;20458;-78
2021/11/29 01:53:44;;;;;;;8.30;5.10;;;0.70;99.90;;;;;;4978210;28;20074;-79
2021/11/29 01:56:10;;;;;;;11.32;6.20;;;0.70;99.90;;;;;;4974953;28;20026;-79
2021/11/29 01:58:39;;;;;;;8.85;5.80;;;0.80;99.90;;;;;;4978884;28;20370;-77
2021/11/29 02:01:14;;;;;;;7.80;4.97;;;0.70;99.90;;;;;;4962529;28;20406;-81
2021/11/29 02:03:41;;;;;;;8.05;5.13;;;0.70;99.90;;;;;;4976676;28;20031;-78
2021/11/29 02:06:07;;;;;;;9.48;5.35;;;0.70;99.90;;;;;;4978378;28;20042;-79
2021/11/29 02:08:33;;;;;;;9.20;5.57;;;0.60;99.90;;;;;;4984405;28;20027;-79
2021/11/29 02:10:59;;;;;;;8.07;5.03;;;0.60;99.90;;;;;;4989259;28;20034;-78
2021/11/29 02:13:24;;;;;;;9.93;5.65;;;0.60;99.90;;;;;;4985072;28;20035;-79
2021/11/29 02:15:53;;;;;;;7.72;4.95;;;0.60;99.90;;;;;;4988663;28;20141;-78
2021/11/29 02:18:27;;;;;;;7.70;4.97;;;0.70;99.90;;;;;;4980050;28;20027;-80
2021/11/29 02:21:01;;;;;;;7.22;5.07;;;0.70;99.90;;;;;;4991720;28;20093;-78
2021/11/29 02:23:27;;;;;;;10.43;5.20;;;0.70;99.90;;;;;;4966154;28;20058;-78
2021/11/29 02:25:52;;;;;;;8.07;4.90;;;0.60;99.90;;;;;;4966708;28;20624;-78
2021/11/29 02:28:20;;;;;;;7.47;5.10;;;0.60;99.90;;;;;;4989620;28;20038;-78
2021/11/29 02:30:47;;;;;;;8.95;5.75;;;0.70;99.90;;;;;;4988793;28;20042;-78
2021/11/29 02:33:13;;;;;;;7.95;5.45;;;0.70;99.90;;;;;;4986759;28;20069;-78
2021/11/29 02:35:39;;;;;;;8.95;5.95;;;0.70;99.90;;;;;;4969808;28;20038;-77
2021/11/29 02:38:08;;;;;;;8.45;5.35;;;0.80;99.90;;;;;;4989717;28;20044;-78
2021/11/29 02:40:34;;;;;;;9.60;5.88;;;0.80;99.90;;;;;;4993717;28;20057;-78
2021/11/29 02:43:00;;;;;;;9.23;5.25;;;0.80;99.90;;;;;;4948416;28;20050;-80
2021/11/29 02:45:27;;;;;;;6.63;4.95;;;0.80;99.90;;;;;;4961489;28;20054;-78
2021/11/29 02:47:53;;;;;;;9.82;5.72;;;0.70;99.90;;;;;;4961450;28;20042;-77
2021/11/29 02:50:20;;;;;;;9.10;5.55;;;0.80;99.90;;;;;;4991245;28;20496;-77
2021/11/29 02:52:46;;;;;;;9.48;5.28;;;0.90;99.90;;;;;;4981714;28;20037;-78
2021/11/29 02:55:12;;;;;;;8.38;5.40;;;0.80;99.90;;;;;;4976579;28;20031;-78
2021/11/29 02:57:38;;;;;;;7.78;5.03;;;0.80;99.90;;;;;;4959591;28;20038;-79
2021/11/29 03:00:07;;;;;;;7.70;4.88;;;0.70;99.90;;;;;;4984957;28;20027;-79
2021/11/29 03:02:33;;;;;;;6.47;4.75;;;0.60;99.90;;;;;;4967079;28;20035;-78
2021/11/29 03:05:00;;;;;;;8.68;4.97;;;0.60;99.90;;;;;;4980462;28;20058;-79
2021/11/29 03:07:26;;;;;;;9.57;5.65;;;0.60;99.90;;;;;;4989896;28;20612;-77
2021/11/29 03:09:52;;;;;;;8.02;5.30;;;0.70;99.90;;;;;;4966655;28;20065;-78
2021/11/29 03:12:18;;;;;;;7.50;4.93;;;0.60;99.90;;;;;;4979942;28;20038;-77
2021/11/29 03:14:44;;;;;;;7.18;5.25;;;0.60;99.90;;;;;;4943557;28;20041;-78
2021/11/29 03:17:10;;;;;;;8.00;5.20;;;0.60;99.90;;;;;;4987829;28;20077;-77
2021/11/29 03:19:38;;;;;;;9.63;5.88;;;0.60;99.90;;;;;;4985945;28;20023;-77
2021/11/29 03:22:07;;;;;;;7.88;4.88;;;0.60;99.90;;;;;;4971284;28;20393;-77
2021/11/29 03:24:33;;;;;;;7.13;4.63;;;0.60;99.90;;;;;;4961052;28;20038;-77
2021/11/29 03:26:59;;;;;;;8.25;4.97;;;0.60;99.90;;;;;;4985705;28;20061;-78
2021/11/29 03:29:27;;;;;;;6.00;4.43;;;0.60;99.90;;;;;;4986063;28;20536;-78
2021/11/29 03:31:54;;;;;;;6.15;4.20;;;0.60;99.90;;;;;;4971879;28;20133;-78
2021/11/29 03:34:22;;;;;;;8.05;5.18;;;0.60;99.90;;;;;;4955982;28;20027;-78
2021/11/29 03:36:49;;;;;;;5.95;4.57;;;0.60;99.90;;;;;;4986210;28;20037;-80
2021/11/29 03:39:26;;;;;;;7.40;4.72;;;0.60;99.90;;;;;;4987373;28;20413;-79
2021/11/29 03:41:55;;;;;;;7.25;4.78;;;0.70;99.90;;;;;;4971037;28;20042;-78
2021/11/29 03:44:22;;;;;;;6.88;4.70;;;0.70;99.90;;;;;;4984872;28;20616;-77
2021/11/29 03:46:49;;;;;;;6.32;4.38;;;0.70;99.90;;;;;;4978918;28;20031;-79
2021/11/29 03:49:15;;;;;;;8.60;5.05;;;0.70;99.90;;;;;;4974072;28;20397;-78
2021/11/29 03:51:41;;;;;;;7.43;5.03;;;0.70;99.90;;;;;;4988970;28;20061;-78
2021/11/29 03:54:08;;;;;;;7.88;4.82;;;0.70;99.90;;;;;;4975915;28;20022;-77
2021/11/29 03:56:34;;;;;;;7.25;4.43;;;0.70;99.90;;;;;;4966632;28;20085;-78
2021/11/29 03:59:01;;;;;;;7.28;4.55;;;0.70;99.90;;;;;;4989232;28;20038;-80
2021/11/29 04:01:26;;;;;;;7.07;4.88;;;0.70;99.90;;;;;;4990542;28;20423;-79
2021/11/29 04:03:52;;;;;;;7.10;4.80;;;0.70;99.90;;;;;;4979571;28;20031;-79
2021/11/29 04:06:18;;;;;;;7.13;4.78;;;0.70;99.90;;;;;;4967489;28;20018;-78
2021/11/29 04:08:44;;;;;;;7.50;4.53;;;0.70;99.90;;;;;;4983715;28;20026;-78
2021/11/29 04:11:10;;;;;;;7.97;4.95;;;0.70;99.90;;;;;;4974776;28;20049;-77
2021/11/29 04:13:36;;;;;;;7.10;4.78;;;0.70;99.90;;;;;;4964038;28;20445;-78
2021/11/29 04:16:02;;;;;;;5.72;3.72;;;0.60;99.90;;;;;;4960923;28;20041;-78
2021/11/29 04:18:28;;;;;;;6.78;4.88;;;0.60;99.90;;;;;;4962153;28;20050;-77
2021/11/29 04:20:56;;;;;;;6.88;4.07;;;0.60;99.90;;;;;;4988010;28;20039;-78
2021/11/29 04:23:21;;;;;;;7.10;5.18;;;0.60;99.90;;;;;;4956228;28;20704;-79
2021/11/29 04:25:56;;;;;;;8.13;4.35;;;0.70;99.90;;;;;;4984315;28;20046;-78
2021/11/29 04:28:22;;;;;;;9.57;4.75;;;0.60;99.90;;;;;;4986179;28;20117;-77
2021/11/29 04:30:49;;;;;;;7.00;4.35;;;0.60;99.90;;;;;;4991253;28;20120;-78
2021/11/29 04:33:14;;;;;;;7.28;4.40;;;0.60;99.90;;;;;;4980667;28;20035;-78
2021/11/29 04:35:40;;;;;;;7.93;4.97;;;0.60;99.90;;;;;;4951142;28;20034;-77
2021/11/29 04:38:06;;;;;;;6.88;4.22;;;0.60;99.90;;;;;;4967620;28;20536;-78
2021/11/29 04:40:32;;;;;;;6.00;4.40;;;0.60;99.90;;;;;;4946028;28;20126;-77
2021/11/29 04:42:58;;;;;;;5.55;4.25;;;0.60;99.90;;;;;;4964714;28;20043;-78
2021/11/29 04:45:24;;;;;;;7.18;4.85;;;0.60;99.90;;;;;;4980239;28;20031;-80
2021/11/29 04:47:50;;;;;;;5.90;4.38;;;0.60;99.90;;;;;;4958701;28;20110;-79
2021/11/29 04:50:16;;;;;;;5.97;4.15;;;0.60;99.90;;;;;;4982890;28;20437;-80
2021/11/29 04:52:42;;;;;;;7.63;4.53;;;0.60;99.90;;;;;;4958092;28;20038;-78
2021/11/29 04:55:11;;;;;;;6.53;4.45;;;0.60;99.90;;;;;;4991974;28;20034;-79
2021/11/29 04:57:37;;;;;;;5.47;4.30;;;0.60;99.90;;;;;;4988201;28;20043;-79
2021/11/29 05:00:05;;;;;;;6.65;4.22;;;0.60;99.90;;;;;;4992259;28;20030;-79
2021/11/29 05:02:31;;;;;;;5.80;3.95;;;0.60;99.90;;;;;;4990408;28;20033;-79
2021/11/29 05:04:57;;;;;;;8.80;5.15;;;0.70;99.90;;;;;;4958758;28;20109;-80
2021/11/29 05:07:25;;;;;;;6.72;4.15;;;0.70;99.90;;;;;;4974526;28;20038;-80
2021/11/29 05:09:51;;;;;;;5.82;3.97;;;0.60;99.90;;;;;;4962210;28;20069;-80
2021/11/29 05:12:17;;;;;;;6.05;4.20;;;0.70;99.90;;;;;;4975637;28;20055;-79
2021/11/29 05:14:45;;;;;;;7.35;4.70;;;0.60;99.90;;;;;;4970333;28;20392;-79
2021/11/29 05:17:12;;;;;;;6.53;4.28;;;0.70;99.90;;;;;;4969584;28;20702;-79
2021/11/29 05:19:37;;;;;;;5.57;4.28;;;0.70;99.90;;;;;;4989144;28;20018;-79
2021/11/29 05:22:03;;;;;;;7.88;4.88;;;0.70;99.90;;;;;;4966653;28;20154;-79
2021/11/29 05:24:29;;;;;;;6.20;4.47;;;0.70;99.90;;;;;;4974503;28;20081;-80
2021/11/29 05:26:55;;;;;;;7.22;4.47;;;0.70;99.90;;;;;;4965873;28;20129;-79
2021/11/29 05:29:21;;;;;;;5.97;4.22;;;0.70;99.90;;;;;;4964881;28;20149;-80
2021/11/29 05:31:47;;;;;;;6.28;4.45;;;0.70;99.90;;;;;;4986720;28;20117;-79
2021/11/29 05:34:13;;;;;;;6.60;4.38;;;0.70;99.90;;;;;;4959999;28;20023;-79
2021/11/29 05:36:40;;;;;;;6.50;4.20;;;0.70;99.90;;;;;;4970028;28;20041;-80
2021/11/29 05:39:06;;;;;;;5.70;3.65;;;0.70;99.90;;;;;;4968595;28;20078;-80
2021/11/29 05:41:32;;;;;;;8.80;4.95;;;0.80;99.90;;;;;;4987423;28;20029;-80
2021/11/29 05:43:58;;;;;;;5.45;4.22;;;0.80;99.90;;;;;;4968222;28;20093;-78
2021/11/29 05:46:24;;;;;;;7.60;4.93;;;0.80;99.90;;;;;;4974497;28;20831;-79
2021/11/29 05:48:50;;;;;;;6.57;4.35;;;0.80;99.90;;;;;;4984800;28;20034;-79
2021/11/29 05:51:17;;;;;;;6.40;4.25;;;0.80;99.90;;;;;;4984007;28;20424;-80
2021/11/29 05:53:43;;;;;;;5.45;4.20;;;0.80;99.90;;;;;;4967195;28;20031;-78
2021/11/29 05:56:08;;;;;;;7.35;4.65;;;0.80;99.90;;;;;;4965475;28;20628;-79
2021/11/29 05:58:35;;;;;;;5.82;4.10;;;0.80;99.90;;;;;;4970255;28;20031;-81
2021/11/29 06:01:03;;;;;;;6.53;4.50;;;0.80;99.90;;;;;;4968369;28;20030;-78
2021/11/29 06:03:29;;;;;;;4.85;3.80;;;0.80;99.90;;;;;;4959251;28;20465;-80
2021/11/29 06:05:54;;;;;;;6.53;4.28;;;0.70;99.90;;;;;;4972343;28;20437;-79
2021/11/29 06:08:20;;;;;;;6.68;4.10;;;0.80;99.90;;;;;;4990329;28;20030;-78
2021/11/29 06:10:47;;;;;;;5.95;3.92;;;0.80;99.90;;;;;;4985063;28;20035;-79
2021/11/29 06:13:12;;;;;;;5.82;3.88;;;0.80;99.90;;;;;;4962915;28;20082;-79
2021/11/29 06:15:38;;;;;;;4.47;3.72;;;0.80;99.90;;;;;;4982195;28;20030;-79
2021/11/29 06:18:04;;;;;;;6.25;4.03;;;0.80;99.90;;;;;;4965704;28;20038;-79
2021/11/29 06:20:30;;;;;;;5.18;3.63;;;0.80;99.90;;;;;;4981954;28;20085;-78
2021/11/29 06:22:59;;;;;;;5.70;4.15;;;0.80;99.90;;;;;;4983815;22;20065;-77
2021/11/29 06:25:25;;;;;;;6.72;4.18;;;0.80;99.90;;;;;;4994052;28;20026;-77
2021/11/29 06:27:54;;;;;;;5.53;4.15;;;0.90;99.90;;;;;;4996241;28;20041;-76
2021/11/29 06:30:20;;;;;;;5.18;3.58;;;0.80;99.90;;;;;;4976943;28;20034;-77
2021/11/29 06:32:46;;;;;;;5.75;3.80;;;0.90;99.90;;;;;;4997195;28;20040;-77
2021/11/29 06:35:13;;;;;;;5.80;4.07;;;0.90;99.90;;;;;;4983916;28;20528;-77
2021/11/29 06:37:42;;;;;;;5.30;3.80;;;0.90;99.90;;;;;;4994539;28;20057;-77
2021/11/29 06:40:09;;;;;;;5.15;3.88;;;0.90;99.90;;;;;;4997289;28;20042;-77
2021/11/29 06:42:35;;;;;;;5.63;3.90;;;0.80;99.90;;;;;;4970293;28;20521;-78
2021/11/29 06:45:00;;;;;;;5.03;3.85;;;0.90;99.90;;;;;;4993840;28;20121;-77
2021/11/29 06:47:26;;;;;;;5.32;3.60;;;0.90;99.90;;;;;;4991770;28;20069;-77
2021/11/29 06:49:52;;;;;;;6.05;3.90;;;0.90;99.90;;;;;;4975769;28;20062;-77
2021/11/29 06:52:18;;;;;;;6.80;3.67;;;0.90;99.90;;;;;;4959529;28;20069;-77
2021/11/29 06:54:48;;;;;;;5.32;3.65;;;0.90;99.90;;;;;;4978851;28;20041;-77
2021/11/29 06:57:15;;;;;;;4.93;3.55;;;0.90;99.90;;;;;;4966649;28;20058;-77
2021/11/29 06:59:42;;;;;;;5.85;3.97;;;0.80;99.90;;;;;;4996392;28;20113;-77
2021/11/29 07:02:09;;;;;;;5.85;3.92;;;0.80;99.90;;;;;;4990757;28;20030;-77
2021/11/29 07:04:35;;;;;;;6.00;3.63;;;0.90;99.90;;;;;;4991620;28;20049;-77
2021/11/29 07:07:01;;;;;;;5.85;4.13;;;0.80;99.90;;;;;;4994846;28;20043;-77
2021/11/29 07:09:27;;;;;;;5.65;3.60;;;0.90;99.90;;;;;;4977083;28;20042;-77
2021/11/29 07:11:53;;;;;;;3.38;2.92;;;0.90;99.90;;;;;;4994908;28;20061;-77
2021/11/29 07:14:19;;;;;;;5.00;3.63;;;0.90;99.90;;;;;;5004399;28;20124;-77
2021/11/29 07:16:48;;;;;;;5.47;3.80;;;0.90;99.90;;;;;;4977558;28;20077;-77
2021/11/29 07:19:18;;;;;;;5.13;3.70;;;0.90;99.90;;;;;;4976599;28;20027;-77
2021/11/29 07:21:45;;;;;;;4.38;3.58;;;0.90;99.90;;;;;;4993001;28;20022;-77
2021/11/29 07:24:11;;;;;;;5.45;3.83;;;0.90;99.90;;;;;;4997586;28;20535;-77
2021/11/29 07:26:38;;;;;;;4.53;3.13;;;0.90;99.90;;;;;;4994393;28;20038;-77
2021/11/29 07:29:04;;;;;;;6.55;4.13;;;0.90;99.90;;;;;;4991867;28;20038;-77
2021/11/29 07:31:31;;;;;;;4.63;3.55;;;0.90;99.90;;;;;;4977136;28;20053;-77
2021/11/29 07:33:57;;;;;;;4.25;3.58;;;0.90;99.90;;;;;;4993255;28;20420;-77
2021/11/29 07:36:22;;;;;;;5.13;3.60;;;1.00;99.90;;;;;;4971525;28;20109;-77
2021/11/29 07:38:48;;;;;;;4.28;3.45;;;1.00;99.90;;;;;;4973324;28;20497;-77
2021/11/29 07:41:14;;;;;;;5.13;3.38;;;1.00;99.90;;;;;;4991764;28;20027;-77
2021/11/29 07:43:40;;;;;;;5.22;3.45;;;1.00;99.90;;;;;;4989440;28;20392;-77
2021/11/29 07:46:06;;;;;;;5.60;3.42;;;1.00;99.90;;;;;;4988560;28;20117;-77
2021/11/29 07:48:31;;;;;;;3.92;3.17;;;1.00;99.90;;;;;;4987061;28;20042;-78
2021/11/29 07:50:57;;;;;;;4.70;3.13;;;1.00;99.90;;;;;;4985605;28;20417;-77
2021/11/29 07:53:23;;;;;;;6.03;3.58;;;1.00;99.90;;;;;;4995493;28;20060;-77
2021/11/29 07:55:49;;;;;;;5.32;3.05;;;1.10;99.90;;;;;;5002852;28;20033;-77
2021/11/29 07:58:17;;;;;;;5.40;3.58;;;1.10;99.90;;;;;;5000014;28;20026;-77
2021/11/29 08:00:43;;;;;;;4.80;3.53;;;1.10;99.90;;;;;;4992771;28;20089;-77
2021/11/29 08:03:09;;;;;;;5.20;3.47;;;1.10;99.90;;;;;;4996178;28;20040;-77
2021/11/29 08:05:37;;;;;;;4.95;3.30;;;1.10;99.90;;;;;;4993738;28;20133;-77
2021/11/29 08:08:05;;;;;;;4.68;3.35;;;1.10;99.90;;;;;;4975898;28;20030;-77
2021/11/29 08:10:34;;;;;;;4.88;3.58;;;1.10;99.90;;;;;;4991598;28;20039;-77
2021/11/29 08:13:01;;;;;;;4.53;3.20;;;1.10;99.90;;;;;;4994881;28;20061;-77
2021/11/29 08:15:26;;;;;;;4.53;3.33;;;1.10;99.90;;;;;;4960593;28;20057;-77
2021/11/29 08:17:52;;;;;;;4.25;3.30;;;1.20;99.90;;;;;;4975637;28;20103;-77
2021/11/29 08:20:19;;;;;;;4.97;3.65;;;1.10;99.90;;;;;;4994650;28;20025;-77
2021/11/29 08:22:46;;;;;;;4.55;3.38;;;1.20;99.90;;;;;;4997921;28;20030;-78
2021/11/29 08:25:12;;;;;;;3.95;3.30;;;1.20;99.90;;;;;;4999205;28;20111;-78
2021/11/29 08:27:38;;;;;;;4.47;3.42;;;1.20;99.90;;;;;;4971371;28;20093;-78
2021/11/29 08:30:07;;;;;;;4.60;3.45;;;1.20;99.90;;;;;;4983088;28;20054;-78
2021/11/29 08:32:34;;;;;;;4.40;3.08;;;1.20;99.90;;;;;;4988215;28;20089;-78
2021/11/29 08:35:00;;;;;;;4.43;3.30;;;1.20;99.90;;;;;;4998780;28;20042;-78
2021/11/29 08:37:26;;;;;;;4.85;3.40;;;1.20;99.90;;;;;;5001280;28;20101;-78
2021/11/29 08:39:52;;;;;;;5.88;3.92;;;1.20;99.90;;;;;;5000404;28;20118;-78
2021/11/29 08:42:17;;;;;;;5.13;3.40;;;1.30;99.90;;;;;;4997370;28;20038;-80
2021/11/29 08:44:43;;;;;;;4.97;3.70;;;1.30;99.90;;;;;;4980919;28;20523;-78
2021/11/29 08:47:09;;;;;;;4.55;3.20;;;1.30;99.90;;;;;;4977347;28;20038;-80
2021/11/29 08:49:35;;;;;;;5.85;3.97;;;1.30;99.90;;;;;;4993428;28;20022;-79
2021/11/29 08:52:02;;;;;;;5.63;3.78;;;1.30;99.90;;;;;;4998345;28;20034;-80
2021/11/29 08:54:28;;;;;;;5.38;3.40;;;1.30;99.90;;;;;;4978614;28;20120;-78
2021/11/29 08:56:54;;;;;;;5.80;3.85;;;1.40;99.90;;;;;;4966652;28;20053;-78
2021/11/29 08:59:21;;;;;;;5.32;3.72;;;1.40;99.90;;;;;;4974569;28;20034;-78
2021/11/29 09:01:49;;;;;;;4.68;3.47;;;1.40;99.90;;;;;;4988846;28;20042;-78
2021/11/29 09:04:15;;;;;;;4.25;3.08;;;1.40;99.90;;;;;;4995197;28;20028;-79
2021/11/29 09:06:42;;;;;;;4.10;2.90;;;1.50;99.90;;;;;;5002344;28;20107;-79
2021/11/29 09:09:10;;;;;;;3.38;2.75;;;1.40;99.90;;;;;;4990932;28;20034;-78
2021/11/29 09:11:37;;;;;;;4.43;3.00;;;1.50;99.90;;;;;;4992254;28;20102;-79
2021/11/29 09:14:03;;;;;;;4.35;3.15;;;1.50;99.90;;;;;;4982179;28;20038;-78
2021/11/29 09:16:29;;;;;;;4.07;3.00;;;1.40;99.90;;;;;;4997908;28;20117;-79
2021/11/29 09:18:54;;;;;;;4.43;3.00;;;1.50;99.90;;;;;;4980484;28;20033;-80
2021/11/29 09:21:23;;;;;;;3.33;2.92;;;1.50;99.90;;;;;;4965976;28;20030;-79
2021/11/29 09:23:49;;;;;;;4.82;2.47;;;1.60;99.90;;;;;;4961951;28;20103;-78
2021/11/29 09:26:16;;;;;;;3.92;2.75;;;1.60;99.90;;;;;;4998489;28;20080;-79
2021/11/29 09:28:43;;;;;;;3.28;2.58;;;1.60;99.90;;;;;;4977060;28;20038;-79
2021/11/29 09:31:10;;;;;;;4.32;2.85;;;1.60;99.90;;;;;;4997196;28;20026;-78
2021/11/29 09:33:36;;;;;;;4.85;3.53;;;1.70;99.90;;;;;;4999022;28;20030;-78
2021/11/29 09:36:03;;;;;;;4.10;2.72;;;1.70;99.90;;;;;;4968172;28;20039;-80
2021/11/29 09:38:29;;;;;;;3.25;2.88;;;1.70;99.90;;;;;;4995566;28;20029;-81
2021/11/29 09:40:55;;;;;;;3.30;2.60;;;1.70;99.90;;;;;;4975407;28;20105;-82
2021/11/29 09:43:22;;;;;;;3.92;2.90;;;1.80;99.90;;;;;;4962670;28;20130;-81
2021/11/29 09:45:49;;;;;;;4.68;2.90;;;1.80;99.90;;;;;;4980193;28;20029;-78
2021/11/29 09:48:16;;;;;;;4.13;2.40;;;1.80;99.90;;;;;;4999930;28;20100;-79
2021/11/29 09:50:46;;;;;;;3.28;2.20;;;1.90;99.90;;;;;;4938977;28;20026;-80
2021/11/29 09:53:15;;;;;;;2.65;2.40;;;1.90;99.90;;;;;;4968431;28;20018;-79
2021/11/29 09:55:43;;;;;;;2.85;2.40;;;1.90;99.90;;;;;;4949136;28;20090;-78
2021/11/29 09:58:09;;;;;;;3.10;2.42;;;1.90;99.90;;;;;;4978649;28;20025;-81
2021/11/29 10:00:40;;;;;;;3.13;2.45;;;1.90;99.90;;;;;;4983272;28;20053;-81
2021/11/29 10:03:07;;;;;;;3.83;2.33;;;2.00;99.90;;;;;;4979138;28;20053;-78
2021/11/29 10:05:35;;;;;;;3.28;2.17;;;2.00;99.90;;;;;;4997396;28;20456;-80
2021/11/29 10:08:40;;;;;;;3.83;2.35;;;2.10;99.90;;;;;;4970977;28;20053;-80
2021/11/29 10:11:14;;;;;;;3.15;2.15;;;2.10;99.90;;;;;;4969882;28;20535;-79
2021/11/29 10:13:59;;;;;;;3.17;2.10;;;2.10;99.90;;;;;;4964269;28;20373;-79
2021/11/29 10:16:33;;;;;;;3.15;2.60;;;2.20;99.90;;;;;;4983112;28;20081;-80
2021/11/29 10:19:00;;;;;;;3.88;2.65;;;2.20;99.90;;;;;;4988045;28;20030;-80
2021/11/29 10:21:26;;;;;;;3.58;2.70;;;2.20;99.90;;;;;;4962027;28;20110;-80
2021/11/29 10:23:55;;;;;;;2.60;2.40;;;2.20;99.90;;;;;;4970467;28;20098;-78
2021/11/29 10:26:31;;;;;;;3.22;2.33;;;2.20;99.90;;;;;;4952652;28;20117;-81
2021/11/29 10:29:06;;;;;;;3.60;2.47;;;2.30;99.90;;;;;;4995843;28;20026;-80
2021/11/29 10:31:51;;;;;;;;;;;2.30;99.90;;;;;;4997629;28;20034;-77
2021/11/29 10:34:27;;;;;;;3.72;2.25;;;2.30;99.90;;;;;;4988704;28;20571;-79
2021/11/29 10:36:54;;;;;;;;;;;2.30;99.90;;;;;;4994184;28;20164;-80
2021/11/29 10:39:35;;;;;;;3.42;2.60;;;2.30;99.90;;;;;;5008205;28;20412;-79
2021/11/29 10:42:06;;;;;;;3.38;1.88;;;2.30;99.90;;;;;;4998041;28;20064;-78
2021/11/29 10:44:34;;;;;;;3.08;2.47;;;2.40;99.90;;;;;;4959682;28;20038;-79
2021/11/29 10:47:13;;;;;;;3.28;2.45;;;2.40;99.90;;;;;;4996051;28;20018;-80
2021/11/29 10:49:53;;;;;;;3.60;2.53;;;2.40;99.90;;;;;;4986371;28;20046;-80
2021/11/29 10:52:23;;;;;;;3.65;2.63;;;2.50;99.90;;;;;;4976581;28;20034;-79
2021/11/29 10:54:50;;;;;;;3.30;2.45;;;2.50;99.90;;;;;;4987674;28;20034;-80
2021/11/29 10:57:17;;;;;;;3.90;2.67;;;2.50;99.90;;;;;;4954376;28;20409;-80
2021/11/29 10:59:45;;;;;;;3.17;2.33;;;2.50;99.90;;;;;;4983195;28;20054;-79
2021/11/29 11:02:17;;;;;;;3.85;2.70;;;2.50;99.90;;;;;;4957683;28;20052;-82
2021/11/29 11:04:47;;;;;;;3.38;2.38;;;2.50;99.90;;;;;;4956627;28;20027;-80
2021/11/29 11:07:22;;;;;;;3.00;2.47;;;2.60;99.90;;;;;;4935696;28;20085;-80
2021/11/29 11:09:55;;;;;;;;;;;2.50;99.90;;;;;;4980135;28;20033;-79
2021/11/29 11:12:23;;;;;;;3.58;2.53;;;2.50;99.90;;;;;;4970605;28;19925;-79
2021/11/29 11:14:53;;;;;;;3.70;2.67;;;2.50;99.90;;;;;;4992508;28;20033;-81
2021/11/29 11:17:24;;;;;;;4.72;3.00;;;2.50;99.90;;;;;;4980524;28;20438;-79
2021/11/29 11:19:52;;;;;;;3.50;2.53;;;2.50;99.90;;;;;;4997099;28;20039;-81
2021/11/29 11:22:29;;;;;;;8.23;3.33;;;2.40;99.90;;;;;;5006667;28;20032;-82
2021/11/29 11:25:07;;;;;;;5.85;2.60;;;2.40;99.90;;;;;;4971169;28;20529;-80
2021/11/29 11:27:42;;;;;;;4.05;2.60;;;2.30;99.90;;;;;;4985821;28;20038;-82
2021/11/29 11:30:08;;;;;;;2.53;2.08;;;2.40;99.90;;;;;;4981909;28;20026;-80
2021/11/29 11:32:36;;;;;;;3.55;2.30;;;2.30;99.90;;;;;;4985225;28;20456;-79
2021/11/29 11:35:24;;;;;;;3.00;2.28;;;2.40;99.90;;;;;;4956698;28;20089;-81
2021/11/29 11:37:57;;;;;;;3.38;2.47;;;2.40;99.90;;;;;;4979240;28;20022;-77
2021/11/29 11:40:26;;;;;;;5.10;2.53;;;2.40;99.90;;;;;;4994235;28;20041;-79
2021/11/29 11:42:53;;;;;;;4.05;2.40;;;2.30;99.90;;;;;;4974320;28;20033;-80
2021/11/29 11:45:25;;;;;;;3.20;2.28;;;2.40;99.90;;;;;;4982140;28;20034;-81
2021/11/29 11:47:52;;;;;;;6.45;2.42;;;2.40;99.90;;;;;;4968599;28;20038;-80
2021/11/29 11:50:23;;;;;;;2.15;1.95;;;2.40;99.90;;;;;;4967411;28;20090;-79
2021/11/29 11:52:51;;;;;;;2.88;2.08;;;2.50;99.90;;;;;;4978049;28;20454;-80
2021/11/29 11:55:20;;;;;;;3.50;2.70;;;2.40;99.90;;;;;;4958427;28;20059;-81
2021/11/29 11:57:53;;;;;;;3.00;2.15;;;2.40;99.90;;;;;;4958430;28;20040;-78
2021/11/29 12:00:21;;;;;;;4.45;2.47;;;2.50;99.90;;;;;;4971784;28;20030;-80
2021/11/29 12:03:06;;;;;;;3.55;1.83;;;2.50;99.90;;;;;;4987834;28;20081;-79
2021/11/29 12:05:35;;;;;;;3.17;1.95;;;2.50;99.90;;;;;;4963929;28;20407;-81
2021/11/29 12:08:03;;;;;;;2.75;2.00;;;2.40;99.90;;;;;;4974185;28;20037;-81
2021/11/29 12:10:33;;;;;;;3.38;2.30;;;2.40;99.90;;;;;;4980426;28;20031;-82
2021/11/29 12:13:00;;;;;;;4.20;2.58;;;2.30;99.90;;;;;;4998521;28;20464;-80
2021/11/29 12:15:40;;;;;;;4.20;2.50;;;2.30;99.90;;;;;;4981761;28;20048;-82
2021/11/29 12:18:07;;;;;;;3.92;2.03;;;2.30;99.90;;;;;;4986145;28;20022;-79
2021/11/29 12:20:33;;;;;;;4.68;2.15;;;2.30;99.90;;;;;;4979242;28;20816;-79
2021/11/29 12:22:59;;;;;;;4.40;2.33;;;2.30;99.90;;;;;;5018230;23;20041;-89
2021/11/29 12:25:26;;;;;;;3.90;2.20;;;2.20;99.90;;;;;;5035166;28;20083;-87
2021/11/29 12:28:00;;;;;;;3.88;2.42;;;2.20;99.90;;;;;;5035210;28;20028;-88
2021/11/29 12:30:35;;;;;;;4.00;2.17;;;2.20;99.90;;;;;;5035500;28;20629;-89
2021/11/29 12:33:02;;;;;;;2.63;2.22;;;2.10;99.90;;;;;;5034186;28;20037;-87
2021/11/29 12:35:57;;;;;;;2.95;2.13;;;2.10;99.90;;;;;;4982809;28;20589;-88
2021/11/29 12:38:24;;;;;;;2.42;2.22;;;2.10;99.90;;;;;;5031533;28;20040;-88
2021/11/29 12:40:55;;;;;;;3.90;2.33;;;2.10;99.90;;;;;;5014258;28;20087;-87
2021/11/29 12:43:37;;;;;;;4.78;2.53;;;2.10;99.90;;;;;;5002991;28;20040;-89
2021/11/29 12:46:27;;;;;;;2.92;2.10;;;2.10;99.90;;;;;;4999069;28;20029;-90
2021/11/29 12:48:55;;;;;;;4.18;2.20;;;2.10;99.90;;;;;;5030624;28;20033;-87
2021/11/29 12:51:39;;;;;;;6.60;2.38;;;2.10;99.90;;;;;;4994534;28;20423;-89
2021/11/29 12:54:42;;;;;;;2.38;1.60;;;2.10;99.90;;;;;;5038143;28;20475;-89
2021/11/29 12:57:17;;;;;;;3.05;2.17;;;2.10;99.90;;;;;;5014056;28;20036;-87
2021/11/29 13:00:08;;;;;;;5.95;1.90;;;2.00;99.90;;;;;;5034929;28;20029;-87
2021/11/29 13:02:49;;;;;;;3.33;1.88;;;2.00;99.90;;;;;;5021778;28;20022;-87